Time;durP1;ratioP1;P1;durP2;ratioP2;P2;SDS_P1;SDS_P2;PMS_P1;PMS_P2;Temp;Humidity;BMP_temperature;BMP_pressure;BME280_temperature;BME280_humidity;BME280_pressure;Samples;Min_cycle;Max_cycle;Signal;HPM_P1;HPM_P2
2022/04/24 00:00:08;;;;;;;9.93;6.97;;;;;;;;;;5055348;28;20237;-83
2022/04/24 00:02:35;;;;;;;6.97;6.27;;;;;;;;;;5056150;28;20225;-84
2022/04/24 00:05:02;;;;;;;7.57;6.80;;;;;;;;;;5055561;28;20234;-81
2022/04/24 00:07:30;;;;;;;7.63;6.90;;;;;;;;;;5055987;28;20213;-83
2022/04/24 00:09:58;;;;;;;8.20;7.10;;;;;;;;;;5054619;28;20230;-83
2022/04/24 00:12:25;;;;;;;7.07;6.37;;;;;;;;;;5055400;28;20217;-83
2022/04/24 00:14:53;;;;;;;6.50;5.90;;;;;;;;;;5054816;28;20229;-83
2022/04/24 00:17:20;;;;;;;8.07;6.67;;;;;;;;;;5055327;28;20210;-83
2022/04/24 00:19:48;;;;;;;6.77;6.07;;;;;;;;;;5054590;28;20226;-83
2022/04/24 00:22:15;;;;;;;7.47;5.90;;;;;;;;;;5055139;28;20210;-83
2022/04/24 00:24:42;;;;;;;8.77;6.47;;;;;;;;;;5054899;28;20238;-83
2022/04/24 00:27:10;;;;;;;7.13;6.37;;;;;;;;;;5055200;28;20198;-83
2022/04/24 00:29:38;;;;;;;6.73;6.07;;;;;;;;;;5055121;28;20236;-83
2022/04/24 00:32:05;;;;;;;9.87;6.43;;;;;;;;;;5056479;28;20246;-83
2022/04/24 00:34:33;;;;;;;7.10;6.40;;;;;;;;;;5056338;28;20236;-84
2022/04/24 00:37:00;;;;;;;7.30;6.33;;;;;;;;;;5056690;28;20202;-83
2022/04/24 00:39:27;;;;;;;6.63;5.93;;;;;;;;;;5055073;28;20233;-83
2022/04/24 00:41:54;;;;;;;7.43;6.53;;;;;;;;;;5056772;28;20230;-84
2022/04/24 00:44:23;;;;;;;6.67;6.07;;;;;;;;;;5055960;28;20632;-83
2022/04/24 00:46:53;;;;;;;6.40;5.80;;;;;;;;;;5056256;28;20213;-83
2022/04/24 00:49:20;;;;;;;7.17;6.47;;;;;;;;;;5055643;28;20222;-83
2022/04/24 00:51:47;;;;;;;6.60;6.00;;;;;;;;;;5056858;28;20210;-84
2022/04/24 00:54:14;;;;;;;7.43;6.63;;;;;;;;;;5056124;28;20717;-83
2022/04/24 00:56:42;;;;;;;7.67;6.47;;;;;;;;;;5056450;28;20210;-83
2022/04/24 00:59:10;;;;;;;7.00;6.27;;;;;;;;;;5055396;28;20229;-83
2022/04/24 01:01:40;;;;;;;6.57;5.97;;;;;;;;;;5056567;28;20202;-83
2022/04/24 01:04:07;;;;;;;8.07;6.33;;;;;;;;;;5052780;28;20676;-83
2022/04/24 01:06:39;;;;;;;7.03;6.43;;;;;;;;;;5046659;28;20244;-81
2022/04/24 01:09:10;;;;;;;8.33;5.90;;;;;;;;;;5055882;28;20206;-83
2022/04/24 01:11:37;;;;;;;7.17;6.23;;;;;;;;;;5057262;28;20210;-83
2022/04/24 01:14:04;;;;;;;7.03;6.33;;;;;;;;;;5059142;28;20229;-79
2022/04/24 01:16:32;;;;;;;7.17;6.27;;;;;;;;;;5062691;28;20202;-84
2022/04/24 01:19:00;;;;;;;7.00;6.30;;;;;;;;;;5056160;28;20202;-83
2022/04/24 01:21:29;;;;;;;7.10;6.40;;;;;;;;;;5055435;28;20709;-84
2022/04/24 01:23:56;;;;;;;7.03;6.30;;;;;;;;;;5055571;28;20234;-83
2022/04/24 01:26:23;;;;;;;8.87;6.57;;;;;;;;;;5055531;28;20226;-84
2022/04/24 01:28:50;;;;;;;7.77;6.50;;;;;;;;;;5055780;28;20588;-82
2022/04/24 01:31:17;;;;;;;7.13;6.43;;;;;;;;;;5055259;28;20257;-83
2022/04/24 01:33:45;;;;;;;6.87;6.17;;;;;;;;;;5055584;28;20229;-82
2022/04/24 01:36:12;;;;;;;6.27;5.63;;;;;;;;;;5054728;28;20237;-83
2022/04/24 01:38:41;;;;;;;7.03;5.67;;;;;;;;;;5055254;28;20586;-83
2022/04/24 01:41:08;;;;;;;6.33;5.73;;;;;;;;;;5055493;28;20635;-83
2022/04/24 01:43:36;;;;;;;6.97;6.27;;;;;;;;;;5054937;28;20230;-83
2022/04/24 01:46:03;;;;;;;6.77;5.50;;;;;;;;;;5054572;28;20238;-83
2022/04/24 01:48:32;;;;;;;7.77;6.40;;;;;;;;;;5054945;28;20206;-84
2022/04/24 01:50:59;;;;;;;5.93;5.33;;;;;;;;;;5054450;28;20250;-80
2022/04/24 01:53:26;;;;;;;5.77;5.27;;;;;;;;;;5055380;28;20218;-84
2022/04/24 01:55:54;;;;;;;5.90;5.30;;;;;;;;;;5068054;28;20238;-82
2022/04/24 01:58:21;;;;;;;5.73;5.10;;;;;;;;;;5076071;28;20204;-79
2022/04/24 02:00:48;;;;;;;5.80;4.53;;;;;;;;;;5068735;28;20596;-83
2022/04/24 02:03:15;;;;;;;6.13;4.80;;;;;;;;;;5056155;28;20230;-83
2022/04/24 02:05:42;;;;;;;5.80;4.80;;;;;;;;;;5055537;28;20234;-83
2022/04/24 02:08:09;;;;;;;4.73;4.10;;;;;;;;;;5054864;28;20217;-82
2022/04/24 02:10:36;;;;;;;5.00;4.50;;;;;;;;;;5055486;28;20230;-83
2022/04/24 02:13:05;;;;;;;5.30;4.80;;;;;;;;;;5055711;28;20229;-82
2022/04/24 02:15:33;;;;;;;4.77;4.37;;;;;;;;;;5054858;28;20248;-83
2022/04/24 02:18:00;;;;;;;5.20;4.70;;;;;;;;;;5054735;28;20562;-83
2022/04/24 02:20:28;;;;;;;4.70;4.30;;;;;;;;;;5054654;28;20302;-83
2022/04/24 02:22:57;;;;;;;4.80;4.40;;;;;;;;;;5055612;28;20226;-83
2022/04/24 02:25:24;;;;;;;8.50;4.27;;;;;;;;;;5053818;28;20588;-83
2022/04/24 02:27:53;;;;;;;4.90;4.07;;;;;;;;;;5055442;28;20214;-83
2022/04/24 02:30:21;;;;;;;4.33;3.93;;;;;;;;;;5054018;28;20264;-83
2022/04/24 02:32:48;;;;;;;4.23;3.93;;;;;;;;;;5054903;28;20705;-82
2022/04/24 02:35:15;;;;;;;4.30;4.00;;;;;;;;;;5052221;28;20608;-80
2022/04/24 02:37:43;;;;;;;4.47;4.07;;;;;;;;;;5053230;28;20210;-81
2022/04/24 02:40:10;;;;;;;5.43;4.43;;;;;;;;;;5052408;28;20604;-81
2022/04/24 02:42:37;;;;;;;4.23;3.83;;;;;;;;;;5052973;28;20230;-80
2022/04/24 02:45:05;;;;;;;5.07;4.27;;;;;;;;;;5052274;28;20624;-81
2022/04/24 02:47:33;;;;;;;4.80;4.10;;;;;;;;;;5053543;28;20225;-80
2022/04/24 02:50:00;;;;;;;4.37;3.97;;;;;;;;;;5052281;28;20241;-80
2022/04/24 02:52:27;;;;;;;4.27;3.93;;;;;;;;;;5053503;28;20217;-80
2022/04/24 02:54:54;;;;;;;4.60;4.20;;;;;;;;;;5053176;28;20234;-81
2022/04/24 02:57:22;;;;;;;4.03;3.73;;;;;;;;;;5058308;28;20217;-81
2022/04/24 02:59:49;;;;;;;5.90;3.70;;;;;;;;;;5057897;28;20256;-83
2022/04/24 03:02:16;;;;;;;4.43;3.90;;;;;;;;;;5058236;28;20233;-80
2022/04/24 03:04:45;;;;;;;4.33;3.50;;;;;;;;;;5057584;28;20244;-81
2022/04/24 03:07:12;;;;;;;3.93;3.60;;;;;;;;;;5058458;28;20248;-80
2022/04/24 03:09:40;;;;;;;4.03;3.63;;;;;;;;;;5057287;28;20233;-81
2022/04/24 03:12:08;;;;;;;4.30;3.90;;;;;;;;;;5059434;28;20237;-82
2022/04/24 03:14:35;;;;;;;4.10;3.80;;;;;;;;;;5059685;28;20230;-83
2022/04/24 03:17:02;;;;;;;4.13;3.83;;;;;;;;;;5060633;28;20213;-80
2022/04/24 03:19:30;;;;;;;4.77;3.80;;;;;;;;;;5057730;28;20742;-83
2022/04/24 03:21:58;;;;;;;4.33;3.97;;;;;;;;;;5058835;28;20225;-81
2022/04/24 03:24:25;;;;;;;6.33;3.90;;;;;;;;;;5059014;28;20283;-80
2022/04/24 03:26:52;;;;;;;5.43;3.90;;;;;;;;;;5059617;28;20692;-81
2022/04/24 03:29:19;;;;;;;5.47;3.57;;;;;;;;;;5058589;28;20230;-83
2022/04/24 03:31:46;;;;;;;3.93;3.57;;;;;;;;;;5059701;28;20210;-80
2022/04/24 03:34:13;;;;;;;4.43;4.00;;;;;;;;;;5059086;28;20237;-80
2022/04/24 03:36:40;;;;;;;4.73;3.87;;;;;;;;;;5058929;28;20533;-81
2022/04/24 03:39:09;;;;;;;4.00;3.70;;;;;;;;;;5058294;28;20210;-81
2022/04/24 03:41:36;;;;;;;4.17;3.87;;;;;;;;;;5059350;28;20206;-83
2022/04/24 03:44:04;;;;;;;4.43;4.03;;;;;;;;;;5057939;28;20234;-80
2022/04/24 03:46:31;;;;;;;3.93;3.63;;;;;;;;;;5060353;28;20749;-81
2022/04/24 03:48:58;;;;;;;7.67;4.13;;;;;;;;;;5058277;28;20210;-82
2022/04/24 03:51:25;;;;;;;4.10;3.70;;;;;;;;;;5058909;28;20210;-81
2022/04/24 03:53:52;;;;;;;3.77;3.47;;;;;;;;;;5058479;28;20237;-82
2022/04/24 03:56:21;;;;;;;4.63;4.23;;;;;;;;;;5058008;28;20337;-81
2022/04/24 03:58:48;;;;;;;4.37;3.97;;;;;;;;;;5058979;28;20202;-80
2022/04/24 04:01:15;;;;;;;3.87;3.47;;;;;;;;;;5057877;28;20709;-82
2022/04/24 04:03:42;;;;;;;4.17;3.77;;;;;;;;;;5058674;28;20222;-81
2022/04/24 04:06:09;;;;;;;4.07;3.50;;;;;;;;;;5058139;28;20287;-81
2022/04/24 04:08:36;;;;;;;5.57;3.87;;;;;;;;;;5061219;28;20202;-81
2022/04/24 04:11:03;;;;;;;4.10;3.70;;;;;;;;;;5062596;28;20238;-83
2022/04/24 04:13:32;;;;;;;3.83;3.53;;;;;;;;;;5064287;28;20225;-81
2022/04/24 04:15:59;;;;;;;4.20;3.80;;;;;;;;;;5065042;28;20244;-80
2022/04/24 04:18:26;;;;;;;4.20;3.80;;;;;;;;;;5063789;28;20670;-81
2022/04/24 04:20:53;;;;;;;4.43;3.93;;;;;;;;;;5063442;28;20229;-83
2022/04/24 04:23:20;;;;;;;8.60;3.93;;;;;;;;;;5063845;28;20236;-81
2022/04/24 04:25:47;;;;;;;4.67;3.63;;;;;;;;;;5059475;28;20329;-83
2022/04/24 04:28:14;;;;;;;4.83;4.10;;;;;;;;;;5059937;28;20206;-82
2022/04/24 04:30:43;;;;;;;4.33;3.93;;;;;;;;;;5061323;28;20237;-84
2022/04/24 04:33:10;;;;;;;5.60;4.77;;;;;;;;;;5055374;28;20740;-83
2022/04/24 04:35:38;;;;;;;5.97;4.47;;;;;;;;;;5056031;28;20230;-84
2022/04/24 04:38:05;;;;;;;6.03;4.30;;;;;;;;;;5057137;28;20689;-83
2022/04/24 04:40:32;;;;;;;4.27;3.97;;;;;;;;;;5057245;28;20257;-82
2022/04/24 04:42:59;;;;;;;5.03;4.53;;;;;;;;;;5058298;28;20222;-82
2022/04/24 04:45:26;;;;;;;4.90;4.40;;;;;;;;;;5058646;28;20669;-83
2022/04/24 04:47:55;;;;;;;8.37;4.63;;;;;;;;;;5059462;28;20221;-82
2022/04/24 04:50:22;;;;;;;5.43;4.80;;;;;;;;;;5058579;28;20233;-83
2022/04/24 04:52:49;;;;;;;4.63;4.23;;;;;;;;;;5060104;28;20258;-83
2022/04/24 04:55:16;;;;;;;6.33;4.97;;;;;;;;;;5059213;28;20249;-83
2022/04/24 04:57:44;;;;;;;4.90;4.40;;;;;;;;;;5059029;28;20207;-83
2022/04/24 05:00:13;;;;;;;5.93;5.10;;;;;;;;;;5058640;28;20249;-83
2022/04/24 05:02:40;;;;;;;5.00;4.60;;;;;;;;;;5060096;28;20613;-83
2022/04/24 05:05:10;;;;;;;5.30;4.80;;;;;;;;;;5059929;28;20241;-83
2022/04/24 05:07:37;;;;;;;6.30;5.10;;;;;;;;;;5060353;28;20697;-83
2022/04/24 05:10:04;;;;;;;8.87;5.40;;;;;;;;;;5058371;28;20752;-82
2022/04/24 05:12:32;;;;;;;7.10;4.63;;;;;;;;;;5059098;28;20709;-82
2022/04/24 05:15:01;;;;;;;5.40;4.90;;;;;;;;;;5060179;28;20272;-83
2022/04/24 05:17:28;;;;;;;5.60;5.03;;;;;;;;;;5060373;28;20206;-82
2022/04/24 05:19:55;;;;;;;5.90;4.40;;;;;;;;;;5061041;28;20722;-82
2022/04/24 05:22:24;;;;;;;5.70;4.67;;;;;;;;;;5061363;28;20210;-82
2022/04/24 05:24:51;;;;;;;6.13;5.53;;;;;;;;;;5061397;28;20240;-82
2022/04/24 05:27:19;;;;;;;4.97;4.47;;;;;;;;;;5061565;28;20213;-82
2022/04/24 05:29:46;;;;;;;5.53;4.93;;;;;;;;;;5060918;28;20230;-82
2022/04/24 05:32:13;;;;;;;5.47;4.97;;;;;;;;;;5060874;28;20206;-84
2022/04/24 05:34:40;;;;;;;5.40;4.70;;;;;;;;;;5059797;28;20230;-82
2022/04/24 05:37:08;;;;;;;6.97;5.10;;;;;;;;;;5060213;28;20212;-83
2022/04/24 05:39:37;;;;;;;5.80;5.30;;;;;;;;;;5059483;28;20618;-82
2022/04/24 05:42:04;;;;;;;5.40;4.90;;;;;;;;;;5063909;28;20225;-82
2022/04/24 05:44:31;;;;;;;6.63;5.33;;;;;;;;;;5065058;28;20244;-82
2022/04/24 05:46:59;;;;;;;12.97;5.53;;;;;;;;;;5065815;28;20217;-82
2022/04/24 05:49:26;;;;;;;5.97;5.37;;;;;;;;;;5064584;28;20260;-82
2022/04/24 05:51:53;;;;;;;7.67;5.33;;;;;;;;;;5065107;28;20214;-82
2022/04/24 05:54:20;;;;;;;5.47;4.97;;;;;;;;;;5064493;28;20712;-83
2022/04/24 05:56:49;;;;;;;5.80;5.30;;;;;;;;;;5065658;28;20206;-83
2022/04/24 05:59:16;;;;;;;6.50;5.80;;;;;;;;;;5064545;28;20923;-82
2022/04/24 06:01:43;;;;;;;7.20;5.37;;;;;;;;;;5064689;28;20581;-83
2022/04/24 06:04:10;;;;;;;5.73;5.23;;;;;;;;;;5063807;28;20321;-82
2022/04/24 06:06:37;;;;;;;5.90;5.40;;;;;;;;;;5066138;28;20237;-82
2022/04/24 06:09:06;;;;;;;5.70;5.10;;;;;;;;;;5058069;28;20336;-80
2022/04/24 06:11:33;;;;;;;5.57;5.07;;;;;;;;;;5056138;28;20635;-80
2022/04/24 06:14:01;;;;;;;6.23;5.50;;;;;;;;;;5054342;28;20233;-80
2022/04/24 06:16:29;;;;;;;5.13;4.70;;;;;;;;;;5054412;28;20254;-82
2022/04/24 06:18:56;;;;;;;5.97;5.23;;;;;;;;;;5055124;28;20205;-82
2022/04/24 06:21:23;;;;;;;7.47;5.40;;;;;;;;;;5054597;28;20226;-80
2022/04/24 06:23:51;;;;;;;6.50;5.77;;;;;;;;;;5058170;28;20232;-82
2022/04/24 06:26:18;;;;;;;6.43;5.83;;;;;;;;;;5060720;28;20230;-80
2022/04/24 06:28:45;;;;;;;6.00;5.40;;;;;;;;;;5058287;28;20206;-80
2022/04/24 06:31:13;;;;;;;7.20;5.10;;;;;;;;;;5053276;28;20248;-79
2022/04/24 06:33:40;;;;;;;7.17;5.03;;;;;;;;;;5053250;28;20234;-79
2022/04/24 06:36:08;;;;;;;5.70;5.10;;;;;;;;;;5053047;28;20236;-79
2022/04/24 06:38:35;;;;;;;7.13;6.13;;;;;;;;;;5053676;28;20289;-79
2022/04/24 06:41:02;;;;;;;5.87;5.27;;;;;;;;;;5054519;28;20233;-79
2022/04/24 06:43:29;;;;;;;6.07;5.47;;;;;;;;;;5054725;28;20226;-82
2022/04/24 06:45:56;;;;;;;6.00;5.40;;;;;;;;;;5054349;28;20724;-79
2022/04/24 06:48:24;;;;;;;8.73;5.73;;;;;;;;;;5057041;28;20209;-80
2022/04/24 06:50:51;;;;;;;5.63;5.13;;;;;;;;;;5055610;28;20267;-81
2022/04/24 06:53:20;;;;;;;6.80;6.10;;;;;;;;;;5054682;28;20230;-79
2022/04/24 06:55:47;;;;;;;5.40;4.90;;;;;;;;;;5055823;28;20229;-79
2022/04/24 06:58:16;;;;;;;5.60;5.10;;;;;;;;;;5055271;28;20225;-79
2022/04/24 07:00:46;;;;;;;5.53;5.03;;;;;;;;;;5053154;28;20245;-79
2022/04/24 07:03:13;;;;;;;6.03;5.43;;;;;;;;;;5055346;28;20221;-79
2022/04/24 07:05:43;;;;;;;6.40;5.80;;;;;;;;;;5055469;28;20234;-79
2022/04/24 07:08:10;;;;;;;6.07;5.50;;;;;;;;;;5055128;28;20324;-82
2022/04/24 07:10:38;;;;;;;6.57;5.23;;;;;;;;;;5052436;28;20240;-79
2022/04/24 07:13:05;;;;;;;6.00;5.50;;;;;;;;;;5053231;28;20238;-79
2022/04/24 07:15:34;;;;;;;6.83;5.70;;;;;;;;;;5056645;28;20236;-82
2022/04/24 07:18:01;;;;;;;5.93;5.27;;;;;;;;;;5066116;28;20202;-81
2022/04/24 07:20:29;;;;;;;6.10;5.50;;;;;;;;;;5059332;28;20229;-80
2022/04/24 07:23:00;;;;;;;6.90;6.20;;;;;;;;;;5053910;28;20325;-78
2022/04/24 07:25:28;;;;;;;7.20;6.10;;;;;;;;;;5059649;28;20291;-80
2022/04/24 07:27:55;;;;;;;7.00;5.77;;;;;;;;;;5060382;28;20210;-81
2022/04/24 07:30:23;;;;;;;6.80;5.47;;;;;;;;;;5059250;28;20230;-81
2022/04/24 07:32:50;;;;;;;6.83;6.13;;;;;;;;;;5062058;28;20653;-80
2022/04/24 07:35:18;;;;;;;7.27;5.57;;;;;;;;;;5059162;28;20232;-80
2022/04/24 07:37:45;;;;;;;6.50;5.90;;;;;;;;;;5059659;28;20213;-83
2022/04/24 07:40:15;;;;;;;6.20;5.60;;;;;;;;;;5058993;28;20244;-79
2022/04/24 07:42:45;;;;;;;8.83;5.90;;;;;;;;;;5053574;28;20595;-79
2022/04/24 07:45:12;;;;;;;8.67;6.47;;;;;;;;;;5051067;28;20320;-78
2022/04/24 07:47:39;;;;;;;6.27;5.63;;;;;;;;;;5052097;28;20213;-80
2022/04/24 07:50:07;;;;;;;6.13;5.60;;;;;;;;;;5054674;28;20241;-79
2022/04/24 07:52:34;;;;;;;6.20;5.60;;;;;;;;;;5055794;28;20222;-79
2022/04/24 07:55:01;;;;;;;8.17;6.33;;;;;;;;;;5054818;28;20230;-81
2022/04/24 07:57:30;;;;;;;6.47;5.87;;;;;;;;;;5055141;28;20577;-79
2022/04/24 07:59:57;;;;;;;6.70;6.07;;;;;;;;;;5054341;28;20225;-79
2022/04/24 08:02:24;;;;;;;7.53;5.53;;;;;;;;;;5054800;28;20209;-80
2022/04/24 08:04:51;;;;;;;7.03;6.33;;;;;;;;;;5054426;28;20237;-79
2022/04/24 08:07:22;;;;;;;6.43;5.40;;;;;;;;;;5054544;28;20623;-80
2022/04/24 08:09:49;;;;;;;6.70;6.10;;;;;;;;;;5054263;28;20230;-78
2022/04/24 08:12:16;;;;;;;7.87;6.23;;;;;;;;;;5054486;28;20246;-79
2022/04/24 08:14:44;;;;;;;5.97;5.47;;;;;;;;;;5054069;28;20245;-79
2022/04/24 08:17:12;;;;;;;7.80;5.83;;;;;;;;;;5054655;28;20206;-79
2022/04/24 08:19:39;;;;;;;6.57;5.97;;;;;;;;;;5054001;28;20260;-79
2022/04/24 08:22:06;;;;;;;6.97;6.37;;;;;;;;;;5054337;28;20221;-79
2022/04/24 08:24:33;;;;;;;6.83;6.13;;;;;;;;;;5053880;28;20325;-79
2022/04/24 08:27:00;;;;;;;6.93;5.80;;;;;;;;;;5054735;28;20229;-79
2022/04/24 08:29:28;;;;;;;6.53;5.93;;;;;;;;;;5053544;28;20560;-79
2022/04/24 08:31:56;;;;;;;6.70;5.70;;;;;;;;;;5054396;28;20602;-78
2022/04/24 08:34:23;;;;;;;8.63;6.63;;;;;;;;;;5067517;28;20245;-82
2022/04/24 08:36:50;;;;;;;7.33;6.43;;;;;;;;;;5074980;28;20202;-80
2022/04/24 08:39:17;;;;;;;6.70;6.00;;;;;;;;;;5073648;28;20242;-81
2022/04/24 08:41:45;;;;;;;6.90;6.30;;;;;;;;;;5064844;28;20203;-81
2022/04/24 08:44:12;;;;;;;7.77;6.73;;;;;;;;;;5057033;28;20230;-80
2022/04/24 08:46:39;;;;;;;7.00;6.30;;;;;;;;;;5057396;28;20234;-80
2022/04/24 08:49:10;;;;;;;8.00;7.30;;;;;;;;;;5056799;28;20210;-80
2022/04/24 08:51:38;;;;;;;6.77;6.07;;;;;;;;;;5057509;28;20272;-80
2022/04/24 08:54:05;;;;;;;7.33;6.63;;;;;;;;;;5057628;28;20237;-81
2022/04/24 08:56:32;;;;;;;6.87;6.27;;;;;;;;;;5058331;28;20213;-81
2022/04/24 08:58:59;;;;;;;7.07;6.37;;;;;;;;;;5057432;28;20674;-82
2022/04/24 09:01:26;;;;;;;6.97;6.27;;;;;;;;;;5057432;28;20214;-80
2022/04/24 09:03:53;;;;;;;7.87;7.03;;;;;;;;;;5058190;28;20230;-81
2022/04/24 09:06:23;;;;;;;7.43;6.70;;;;;;;;;;5056754;28;20237;-80
2022/04/24 09:08:50;;;;;;;6.67;6.07;;;;;;;;;;5057639;28;20210;-80
2022/04/24 09:11:19;;;;;;;9.10;6.70;;;;;;;;;;5057482;28;20865;-80
2022/04/24 09:16:35;;;;;;;7.67;6.80;;;;;;;;;;5057573;28;20209;-80
2022/04/24 09:19:02;;;;;;;7.83;7.03;;;;;;;;;;5058858;28;20216;-80
2022/04/24 09:21:31;;;;;;;9.50;6.80;;;;;;;;;;5061006;28;20252;-80
2022/04/24 09:24:01;;;;;;;7.50;6.70;;;;;;;;;;5071672;28;20226;-82
2022/04/24 09:26:28;;;;;;;8.47;7.13;;;;;;;;;;5068133;28;20233;-80
2022/04/24 09:28:55;;;;;;;7.00;6.30;;;;;;;;;;5073195;28;20210;-80
2022/04/24 09:31:29;;;;;;;8.70;7.50;;;;;;;;;;5073417;28;20281;-82
2022/04/24 09:33:56;;;;;;;8.97;7.47;;;;;;;;;;5073399;28;20229;-80
2022/04/24 09:36:25;;;;;;;8.70;7.10;;;;;;;;;;5074584;28;20229;-82
2022/04/24 09:38:54;;;;;;;8.07;7.23;;;;;;;;;;5074397;28;20232;-82
2022/04/24 09:41:22;;;;;;;8.77;6.93;;;;;;;;;;5074360;28;20230;-83
2022/04/24 09:43:49;;;;;;;8.33;7.33;;;;;;;;;;5075336;28;20228;-83
2022/04/24 09:46:25;;;;;;;8.03;6.73;;;;;;;;;;5074273;28;20244;-82
2022/04/24 09:48:53;;;;;;;9.10;6.97;;;;;;;;;;5066979;28;20257;-81
2022/04/24 09:51:21;;;;;;;8.33;7.43;;;;;;;;;;5059398;28;20319;-81
2022/04/24 09:53:49;;;;;;;8.67;6.87;;;;;;;;;;5061728;28;20234;-80
2022/04/24 09:56:18;;;;;;;8.63;7.73;;;;;;;;;;5058076;28;20244;-80
2022/04/24 09:58:46;;;;;;;8.67;7.27;;;;;;;;;;5061604;28;20210;-82
2022/04/24 10:01:15;;;;;;;11.80;9.10;;;;;;;;;;5062490;28;20241;-80
2022/04/24 10:03:42;;;;;;;7.33;6.63;;;;;;;;;;5064499;28;20312;-81
2022/04/24 10:06:10;;;;;;;11.30;7.67;;;;;;;;;;5060537;28;20236;-80
2022/04/24 10:08:40;;;;;;;8.17;7.27;;;;;;;;;;5062328;28;20216;-83
2022/04/24 10:11:07;;;;;;;7.90;6.70;;;;;;;;;;5063254;28;20260;-81
2022/04/24 10:13:38;;;;;;;7.83;7.03;;;;;;;;;;5064247;28;20671;-81
2022/04/24 10:16:12;;;;;;;9.80;7.43;;;;;;;;;;5063368;28;20225;-82
2022/04/24 10:18:44;;;;;;;10.17;8.27;;;;;;;;;;5061601;28;20193;-82
2022/04/24 10:21:21;;;;;;;21.30;8.20;;;;;;;;;;5060916;28;20241;-81
2022/04/24 10:23:49;;;;;;;10.70;7.77;;;;;;;;;;5060273;28;20222;-80
2022/04/24 10:26:20;;;;;;;9.70;7.53;;;;;;;;;;5062457;28;20238;-81
2022/04/24 10:28:48;;;;;;;7.37;6.67;;;;;;;;;;5070701;28;20217;-83
2022/04/24 10:31:15;;;;;;;7.47;6.73;;;;;;;;;;5074329;28;20234;-83
2022/04/24 10:33:51;;;;;;;7.53;6.83;;;;;;;;;;5072535;28;20297;-81
2022/04/24 10:36:19;;;;;;;9.53;7.90;;;;;;;;;;5073785;28;20283;-84
2022/04/24 10:38:49;;;;;;;13.63;8.70;;;;;;;;;;5073552;28;20220;-81
2022/04/24 10:41:17;;;;;;;9.40;8.40;;;;;;;;;;5056112;28;20264;-83
2022/04/24 10:43:46;;;;;;;9.30;8.40;;;;;;;;;;5073812;28;20229;-82
2022/04/24 10:46:18;;;;;;;8.83;7.83;;;;;;;;;;5069982;28;20582;-79
2022/04/24 10:48:47;;;;;;;9.07;8.13;;;;;;;;;;5060716;28;20198;-81
2022/04/24 10:51:15;;;;;;;11.33;7.67;;;;;;;;;;5060106;28;20256;-81
2022/04/24 10:53:52;;;;;;;9.57;8.03;;;;;;;;;;5060638;28;20321;-81
2022/04/24 10:56:19;;;;;;;8.17;7.37;;;;;;;;;;5058757;28;20229;-81
2022/04/24 10:58:48;;;;;;;8.27;7.40;;;;;;;;;;5058816;28;20213;-81
2022/04/24 11:01:16;;;;;;;10.53;8.07;;;;;;;;;;5057978;28;20242;-81
2022/04/24 11:03:45;;;;;;;7.77;6.87;;;;;;;;;;5062372;28;20233;-81
2022/04/24 11:06:20;;;;;;;8.50;7.30;;;;;;;;;;5058410;28;20610;-81
2022/04/24 11:08:48;;;;;;;7.83;7.00;;;;;;;;;;5061363;28;20209;-81
2022/04/24 11:11:15;;;;;;;7.93;7.13;;;;;;;;;;5059142;28;20254;-80
2022/04/24 11:13:42;;;;;;;8.93;7.77;;;;;;;;;;5060553;28;20222;-82
2022/04/24 11:16:10;;;;;;;8.47;7.67;;;;;;;;;;5058957;28;20237;-81
2022/04/24 11:18:37;;;;;;;7.93;7.20;;;;;;;;;;5060518;28;20210;-81
2022/04/24 11:21:06;;;;;;;9.43;7.93;;;;;;;;;;5060524;28;20321;-81
2022/04/24 11:23:33;;;;;;;8.57;7.10;;;;;;;;;;5059682;28;20234;-81
2022/04/24 11:26:02;;;;;;;8.47;7.57;;;;;;;;;;5062325;28;20237;-80
2022/04/24 11:28:36;;;;;;;7.83;7.03;;;;;;;;;;5064282;28;20210;-79
2022/04/24 11:31:10;;;;;;;10.13;7.57;;;;;;;;;;5064054;28;20664;-81
2022/04/24 11:33:38;;;;;;;7.97;7.17;;;;;;;;;;5063611;28;20245;-80
2022/04/24 11:36:07;;;;;;;9.13;7.97;;;;;;;;;;5060956;28;20237;-80
2022/04/24 11:38:34;;;;;;;8.77;7.53;;;;;;;;;;5062562;28;20232;-81
2022/04/24 11:41:03;;;;;;;8.63;7.73;;;;;;;;;;5062787;28;20238;-81
2022/04/24 11:43:30;;;;;;;8.83;7.93;;;;;;;;;;5061051;28;20225;-81
2022/04/24 11:51:32;;;;;;;8.63;7.73;;;;;;;;;;5065986;28;20228;-78
2022/04/24 11:53:59;;;;;;;10.80;7.87;;;;;;;;;;5059208;28;20286;-77
2022/04/24 11:56:27;;;;;;;8.83;7.83;;;;;;;;;;5067668;28;20198;-82
2022/04/24 11:59:05;;;;;;;8.67;7.67;;;;;;;;;;5068169;28;20269;-83
2022/04/24 12:01:32;;;;;;;9.47;8.40;;;;;;;;;;5066570;28;20234;-82
2022/04/24 12:03:59;;;;;;;9.37;7.83;;;;;;;;;;5065899;28;20225;-79
2022/04/24 12:06:33;;;;;;;8.63;7.83;;;;;;;;;;5067791;28;20210;-82
2022/04/24 12:09:06;;;;;;;8.37;7.47;;;;;;;;;;5064703;28;20216;-81
2022/04/24 12:11:35;;;;;;;9.33;8.33;;;;;;;;;;5067434;28;20197;-79
2022/04/24 12:14:03;;;;;;;9.90;8.80;;;;;;;;;;5065316;28;20226;-79
2022/04/24 12:16:30;;;;;;;10.57;8.27;;;;;;;;;;5065538;28;20206;-81
2022/04/24 12:18:58;;;;;;;9.83;8.50;;;;;;;;;;5067618;28;20206;-81
2022/04/24 12:21:25;;;;;;;8.93;8.03;;;;;;;;;;5080175;28;20200;-85
2022/04/24 12:23:54;;;;;;;9.20;8.27;;;;;;;;;;5080246;28;20212;-85
2022/04/24 12:26:21;;;;;;;10.23;8.30;;;;;;;;;;5066169;28;20617;-81
2022/04/24 12:28:48;;;;;;;8.80;7.90;;;;;;;;;;5065655;28;20210;-80
2022/04/24 12:31:22;;;;;;;10.33;7.37;;;;;;;;;;5064583;28;20301;-82
2022/04/24 12:33:50;;;;;;;7.60;6.80;;;;;;;;;;5067048;28;20244;-80
2022/04/24 12:36:17;;;;;;;10.37;7.23;;;;;;;;;;5066217;28;20247;-81
2022/04/24 12:38:56;;;;;;;9.10;7.20;;;;;;;;;;5065708;28;20688;-81
2022/04/24 12:41:24;;;;;;;10.07;7.70;;;;;;;;;;5064914;28;20596;-80
2022/04/24 12:43:51;;;;;;;8.43;7.17;;;;;;;;;;5062331;28;20257;-79
2022/04/24 12:46:18;;;;;;;10.20;7.57;;;;;;;;;;5060487;28;20233;-82
2022/04/24 12:48:47;;;;;;;9.37;8.37;;;;;;;;;;5059915;28;20233;-81
2022/04/24 12:51:14;;;;;;;9.07;7.93;;;;;;;;;;5059566;28;20245;-81
2022/04/24 12:53:41;;;;;;;9.53;8.33;;;;;;;;;;5059577;28;20289;-80
2022/04/24 12:56:09;;;;;;;9.43;8.13;;;;;;;;;;5062738;28;20286;-81
2022/04/24 12:58:37;;;;;;;8.93;8.03;;;;;;;;;;5074422;28;20214;-81
2022/04/24 13:01:05;;;;;;;9.73;7.53;;;;;;;;;;5072297;28;20230;-81
2022/04/24 13:03:32;;;;;;;9.50;8.07;;;;;;;;;;5071797;28;20226;-80
2022/04/24 13:06:00;;;;;;;10.17;8.20;;;;;;;;;;5060756;28;20608;-80
2022/04/24 13:08:27;;;;;;;9.17;8.27;;;;;;;;;;5054979;28;20311;-81
2022/04/24 13:10:54;;;;;;;8.93;8.03;;;;;;;;;;5054735;28;20237;-80
2022/04/24 13:13:23;;;;;;;9.33;8.13;;;;;;;;;;5055325;28;20234;-80
2022/04/24 13:18:07;;;;;;;9.03;8.13;;;;;;;;;;5054968;28;20230;-80
2022/04/24 13:18:37;;;;;;;9.37;8.43;;;;;;;;;;5058062;28;20241;-79
2022/04/24 13:21:04;;;;;;;10.43;8.60;;;;;;;;;;5057300;28;20717;-79
2022/04/24 13:23:32;;;;;;;9.33;8.43;;;;;;;;;;5057089;28;20710;-80
2022/04/24 13:25:59;;;;;;;9.00;8.10;;;;;;;;;;5057365;28;20237;-82
2022/04/24 13:28:28;;;;;;;9.80;8.73;;;;;;;;;;5056573;28;20234;-79
2022/04/24 13:30:55;;;;;;;11.10;9.10;;;;;;;;;;5056402;28;20309;-79
2022/04/24 13:33:22;;;;;;;9.97;8.60;;;;;;;;;;5056965;28;20625;-80
2022/04/24 13:35:49;;;;;;;10.23;8.80;;;;;;;;;;5054786;28;20240;-79
2022/04/24 13:38:18;;;;;;;9.80;8.70;;;;;;;;;;5056245;28;20312;-79
2022/04/24 13:40:46;;;;;;;9.43;8.10;;;;;;;;;;5056051;28;20577;-80
2022/04/24 13:43:13;;;;;;;9.67;8.77;;;;;;;;;;5057114;28;20222;-80
2022/04/24 13:45:42;;;;;;;10.13;8.77;;;;;;;;;;5057543;28;20249;-79
2022/04/24 13:48:10;;;;;;;11.10;9.67;;;;;;;;;;5056234;28;20237;-79
2022/04/24 13:50:38;;;;;;;10.07;9.00;;;;;;;;;;5060757;28;20320;-80
2022/04/24 13:53:05;;;;;;;10.33;9.13;;;;;;;;;;5062212;28;20226;-80
2022/04/24 13:55:32;;;;;;;12.07;9.03;;;;;;;;;;5061299;28;20233;-80
2022/04/24 13:57:59;;;;;;;10.00;9.00;;;;;;;;;;5061754;28;20213;-80
2022/04/24 14:00:27;;;;;;;10.60;9.43;;;;;;;;;;5061094;28;20241;-80
2022/04/24 14:02:57;;;;;;;10.17;9.17;;;;;;;;;;5062500;28;20241;-80
2022/04/24 14:05:25;;;;;;;10.13;9.00;;;;;;;;;;5059171;28;20240;-80
2022/04/24 14:07:53;;;;;;;10.37;8.27;;;;;;;;;;5060521;28;20222;-80
2022/04/24 14:10:20;;;;;;;9.20;8.30;;;;;;;;;;5059516;28;20322;-79
2022/04/24 14:12:47;;;;;;;8.90;8.00;;;;;;;;;;5061777;28;20226;-81
2022/04/24 14:15:14;;;;;;;10.47;8.80;;;;;;;;;;5063197;28;20632;-79
2022/04/24 14:17:41;;;;;;;9.90;8.40;;;;;;;;;;5063308;28;20202;-81
2022/04/24 14:20:10;;;;;;;9.47;8.47;;;;;;;;;;5062540;28;20230;-81
2022/04/24 14:22:38;;;;;;;10.40;8.73;;;;;;;;;;5062161;28;20666;-79
2022/04/24 14:25:05;;;;;;;9.67;8.63;;;;;;;;;;5062859;28;20244;-81
2022/04/24 14:27:33;;;;;;;10.13;9.10;;;;;;;;;;5063437;28;20245;-79
2022/04/24 14:30:00;;;;;;;9.77;8.77;;;;;;;;;;5059956;28;20225;-79
2022/04/24 14:32:27;;;;;;;10.37;9.27;;;;;;;;;;5063231;28;20214;-81
2022/04/24 14:34:54;;;;;;;9.87;8.97;;;;;;;;;;5063643;28;20319;-80
2022/04/24 14:37:22;;;;;;;10.57;9.20;;;;;;;;;;5063030;28;20205;-82
2022/04/24 14:39:49;;;;;;;10.50;9.40;;;;;;;;;;5062917;28;20230;-81
2022/04/24 14:42:18;;;;;;;10.60;9.50;;;;;;;;;;5064592;28;20206;-80
2022/04/24 14:44:45;;;;;;;10.47;9.47;;;;;;;;;;5062885;28;20237;-80
2022/04/24 14:55:49;;;;;;;10.90;9.77;;;;;;;;;;5058006;28;20279;-81
2022/04/24 14:58:16;;;;;;;10.23;9.10;;;;;;;;;;5058261;28;20264;-81
2022/04/24 15:00:43;;;;;;;11.57;10.27;;;;;;;;;;5058440;28;20245;-80